Time;durP1;ratioP1;P1;durP2;ratioP2;P2;SDS_P1;SDS_P2;PMS_P1;PMS_P2;Temp;Humidity;BMP_temperature;BMP_pressure;BME280_temperature;BME280_humidity;BME280_pressure;Samples;Min_cycle;Max_cycle;Signal;HPM_P1;HPM_P2
2022/10/26 00:01:20;;;;;;;;;;;;;;;8.03;100.00;98228.17;105386;1322;22364;-86
2022/10/26 00:03:48;;;;;;;;;;;;;;;8.08;100.00;98229.89;105330;1324;22253;-85
2022/10/26 00:06:18;;;;;;;;;;;;;;;8.05;100.00;98230.48;105332;1324;22235;-86
2022/10/26 00:08:46;;;;;;;;;;;;;;;8.06;100.00;98227.68;105374;1323;22304;-86
2022/10/26 00:11:14;;;;;;;;;;;;;;;8.11;100.00;98226.22;105427;1324;22230;-86
2022/10/26 00:13:42;;;;;;;;;;;;;;;8.16;100.00;98227.05;105808;1317;22350;-86
2022/10/26 00:16:11;;;;;;;;;;;;;;;8.23;100.00;98229.77;105314;1323;22940;-85
2022/10/26 00:18:39;;;;;;;;;;;;;;;8.32;100.00;98233.07;105343;1313;23012;-86
2022/10/26 00:21:08;;;;;;;;;;;;;;;8.35;100.00;98233.59;105784;1312;22293;-85
2022/10/26 00:23:36;;;;;;;;;;;;;;;8.42;99.98;98238.30;105396;1323;22215;-86
2022/10/26 00:26:04;;;;;;;;;;;;;;;8.48;100.00;98243.11;105654;1306;23029;-85
2022/10/26 00:28:33;;;;;;;;;;;;;;;8.55;100.00;98239.69;105799;1316;22432;-87
2022/10/26 00:31:02;;;;;;;;;;;;;;;8.58;100.00;98236.77;105600;1317;22304;-86
2022/10/26 00:33:31;;;;;;;;;;;;;;;8.65;100.00;98242.00;105765;1316;22239;-84
2022/10/26 00:35:59;;;;;;;;;;;;;;;8.74;100.00;98238.19;105403;1323;22300;-83
2022/10/26 00:38:27;;;;;;;;;;;;;;;8.77;99.93;98238.39;105420;1322;22235;-85
2022/10/26 00:40:55;;;;;;;;;;;;;;;8.77;100.00;98239.41;105300;1324;23070;-84
2022/10/26 00:43:25;;;;;;;;;;;;;;;8.77;100.00;98236.23;105774;1316;22358;-85
2022/10/26 00:45:54;;;;;;;;;;;;;;;8.77;100.00;98234.74;105382;1324;22942;-84
2022/10/26 00:48:25;;;;;;;;;;;;;;;8.73;100.00;98236.02;105783;1316;22353;-85
2022/10/26 00:50:53;;;;;;;;;;;;;;;8.70;100.00;98231.50;105400;1323;22216;-86
2022/10/26 00:53:21;;;;;;;;;;;;;;;8.70;100.00;98229.83;105341;1310;23108;-85
2022/10/26 00:55:50;;;;;;;;;;;;;;;8.71;100.00;98222.61;105813;1309;23144;-85
2022/10/26 00:58:19;;;;;;;;;;;;;;;8.75;100.00;98222.34;105253;1318;22245;-85
2022/10/26 01:00:47;;;;;;;;;;;;;;;8.75;100.00;98225.73;105381;1323;22354;-84
2022/10/26 01:03:16;;;;;;;;;;;;;;;8.71;100.00;98229.06;105816;1316;22344;-85
2022/10/26 01:05:45;;;;;;;;;;;;;;;8.62;100.00;98231.43;105386;1323;22923;-84
2022/10/26 01:08:14;;;;;;;;;;;;;;;8.57;100.00;98230.34;105804;1305;23138;-84
2022/10/26 01:10:42;;;;;;;;;;;;;;;8.53;100.00;98234.97;105788;1305;22964;-85
2022/10/26 01:13:11;;;;;;;;;;;;;;;8.44;100.00;98232.02;105782;1299;22393;-85
2022/10/26 01:15:54;;;;;;;;;;;;;;;8.41;100.00;98232.35;105792;1315;22444;-85
2022/10/26 01:18:29;;;;;;;;;;;;;;;8.37;100.00;98228.75;105797;1316;22261;-84
2022/10/26 01:21:06;;;;;;;;;;;;;;;8.35;100.00;98226.18;105817;1316;22299;-84
2022/10/26 01:23:55;;;;;;;;;;;;;;;8.29;100.00;98225.61;105644;1317;22282;-84
2022/10/26 01:26:49;;;;;;;;;;;;;;;8.29;100.00;98227.16;105272;1324;22326;-85
2022/10/26 01:29:44;;;;;;;;;;;;;;;8.34;100.00;98226.98;104530;1331;22411;-84
2022/10/26 01:32:14;;;;;;;;;;;;;;;8.39;100.00;98226.66;104521;1331;22412;-84
2022/10/26 01:34:50;;;;;;;;;;;;;;;8.36;100.00;98221.66;104477;1332;22455;-84
2022/10/26 01:37:28;;;;;;;;;;;;;;;8.23;100.00;98220.54;104370;1332;23042;-84
2022/10/26 01:40:06;;;;;;;;;;;;;;;8.13;100.00;98221.54;104548;1314;22431;-85
2022/10/26 01:42:35;;;;;;;;;;;;;;;8.04;100.00;98215.08;104499;1331;22287;-85
2022/10/26 01:45:05;;;;;;;;;;;;;;;7.96;100.00;98219.45;104497;1325;22433;-86
2022/10/26 01:47:35;;;;;;;;;;;;;;;7.88;100.00;98215.95;104802;1310;22397;-86
2022/10/26 01:50:04;;;;;;;;;;;;;;;7.82;100.00;98216.70;104492;1332;22272;-87
2022/10/26 01:52:32;;;;;;;;;;;;;;;7.81;100.00;98217.14;104473;1332;22438;-86
2022/10/26 01:55:01;;;;;;;;;;;;;;;7.79;100.00;98218.59;104448;1321;22982;-86
2022/10/26 01:57:31;;;;;;;;;;;;;;;7.78;100.00;98218.28;104384;1327;22404;-85
2022/10/26 02:00:02;;;;;;;;;;;;;;;7.76;100.00;98223.81;104839;1325;22395;-86
2022/10/26 02:02:37;;;;;;;;;;;;;;;7.72;100.00;98229.13;104507;1332;22992;-85
2022/10/26 02:05:20;;;;;;;;;;;;;;;7.74;100.00;98231.54;104887;1324;22323;-84
2022/10/26 02:07:54;;;;;;;;;;;;;;;7.74;100.00;98228.86;105771;1312;22469;-85
2022/10/26 02:10:40;;;;;;;;;;;;;;;7.74;100.00;98226.23;105819;1316;22266;-86
2022/10/26 02:13:08;;;;;;;;;;;;;;;7.67;100.00;98227.73;105773;1305;23628;-85
2022/10/26 02:15:45;;;;;;;;;;;;;;;7.61;100.00;98224.27;105245;1323;22272;-85
2022/10/26 02:18:31;;;;;;;;;;;;;;;7.59;100.00;98223.80;105263;1325;23082;-85
2022/10/26 02:21:11;;;;;;;;;;;;;;;7.67;100.00;98223.18;105772;1316;22331;-85
2022/10/26 02:23:42;;;;;;;;;;;;;;;7.70;100.00;98226.23;105813;1305;22994;-85
2022/10/26 02:26:12;;;;;;;;;;;;;;;7.62;100.00;98223.25;105405;1323;22233;-85
2022/10/26 02:28:46;;;;;;;;;;;;;;;7.52;100.00;98225.52;105262;1318;22367;-85
2022/10/26 02:31:15;;;;;;;;;;;;;;;7.43;100.00;98223.39;105232;1324;22266;-85
2022/10/26 02:33:46;;;;;;;;;;;;;;;7.40;100.00;98225.59;105422;1323;22222;-84
2022/10/26 02:36:24;;;;;;;;;;;;;;;7.39;100.00;98225.59;105414;1322;22363;-84
2022/10/26 02:38:52;;;;;;;;;;;;;;;7.38;100.00;98229.50;105279;1324;22238;-86
2022/10/26 02:41:22;;;;;;;;;;;;;;;7.37;100.00;98226.55;105831;1305;22997;-87
2022/10/26 02:43:53;;;;;;;;;;;;;;;7.33;100.00;98226.83;105829;1316;22258;-87
2022/10/26 02:46:22;;;;;;;;;;;;;;;7.33;100.00;98227.96;105823;1305;22323;-86
2022/10/26 02:48:50;;;;;;;;;;;;;;;7.33;100.00;98227.20;105838;1316;22304;-86
2022/10/26 02:51:17;;;;;;;;;;;;;;;7.34;100.00;98226.44;105406;1323;22861;-86
2022/10/26 02:53:48;;;;;;;;;;;;;;;7.40;100.00;98229.82;105410;1323;22345;-85
2022/10/26 02:56:20;;;;;;;;;;;;;;;7.45;100.00;98232.61;105852;1315;23010;-85
2022/10/26 02:58:50;;;;;;;;;;;;;;;7.49;100.00;98233.52;105399;1323;22939;-86
2022/10/26 03:01:19;;;;;;;;;;;;;;;7.54;100.00;98230.83;105814;1316;22286;-86
2022/10/26 03:03:47;;;;;;;;;;;;;;;7.60;100.00;98234.52;105821;1316;22268;-85
2022/10/26 03:06:22;;;;;;;;;;;;;;;7.62;100.00;98239.13;105395;1316;22250;-85
2022/10/26 03:08:50;;;;;;;;;;;;;;;7.60;100.00;98239.66;105234;1324;22330;-86
2022/10/26 03:11:18;;;;;;;;;;;;;;;7.55;100.00;98243.16;105844;1306;22993;-86
2022/10/26 03:13:45;;;;;;;;;;;;;;;7.51;100.00;98244.99;105405;1324;22380;-86
2022/10/26 03:16:13;;;;;;;;;;;;;;;7.50;100.00;98244.18;105668;1315;22274;-86
2022/10/26 03:18:41;;;;;;;;;;;;;;;7.49;100.00;98245.20;105846;1316;22261;-85
2022/10/26 03:21:09;;;;;;;;;;;;;;;7.52;100.00;98242.52;105830;1316;22338;-84
2022/10/26 03:23:36;;;;;;;;;;;;;;;7.55;100.00;98244.13;105818;1315;23041;-85
2022/10/26 03:26:04;;;;;;;;;;;;;;;7.56;100.00;98241.02;105799;1316;22357;-84
2022/10/26 03:28:32;;;;;;;;;;;;;;;7.58;100.00;98244.88;105423;1324;22780;-85
2022/10/26 03:31:00;;;;;;;;;;;;;;;7.61;100.00;98244.11;105851;1316;22278;-86
2022/10/26 03:33:28;;;;;;;;;;;;;;;7.64;100.00;98243.46;105439;1324;22395;-86
2022/10/26 03:35:56;;;;;;;;;;;;;;;7.61;100.00;98247.65;105802;1316;22268;-86
2022/10/26 03:38:24;;;;;;;;;;;;;;;7.61;100.00;98245.88;105841;1316;22327;-85
2022/10/26 03:40:51;;;;;;;;;;;;;;;7.63;100.00;98246.73;105855;1316;22731;-87
2022/10/26 03:43:19;;;;;;;;;;;;;;;7.67;100.00;98247.59;105840;1316;22340;-86
2022/10/26 03:45:47;;;;;;;;;;;;;;;7.75;100.00;98242.53;105804;1315;22296;-88
2022/10/26 03:48:15;;;;;;;;;;;;;;;7.80;100.00;98248.59;105447;1323;22298;-86
2022/10/26 03:50:42;;;;;;;;;;;;;;;7.77;100.00;98249.66;105819;1316;22343;-85
2022/10/26 03:53:10;;;;;;;;;;;;;;;7.68;100.00;98251.88;105810;1306;22993;-85
2022/10/26 03:55:38;;;;;;;;;;;;;;;7.63;100.00;98254.30;105837;1305;22400;-85
2022/10/26 03:58:05;;;;;;;;;;;;;;;7.55;100.00;98254.80;105845;1316;22366;-86
2022/10/26 04:00:33;;;;;;;;;;;;;;;7.50;100.00;98251.95;105821;1315;22320;-84
2022/10/26 04:03:01;;;;;;;;;;;;;;;7.46;100.00;98252.70;105823;1298;22450;-85
2022/10/26 04:05:29;;;;;;;;;;;;;;;7.46;100.00;98251.90;105401;1324;22368;-85
2022/10/26 04:07:58;;;;;;;;;;;;;;;7.43;100.00;98250.09;105823;1305;22271;-85
2022/10/26 04:10:26;;;;;;;;;;;;;;;7.42;100.00;98255.18;105817;1316;22363;-85
2022/10/26 04:12:56;;;;;;;;;;;;;;;7.39;100.00;98252.83;105472;1323;22444;-85
2022/10/26 04:15:23;;;;;;;;;;;;;;;7.34;100.00;98252.45;105498;1323;22210;-86
2022/10/26 04:17:58;;;;;;;;;;;;;;;7.33;100.00;98253.20;105414;1324;22898;-86
2022/10/26 04:20:27;;;;;;;;;;;;;;;7.30;100.00;98255.02;105796;1316;22355;-85
2022/10/26 04:23:02;;;;;;;;;;;;;;;7.29;100.00;98259.52;105242;1326;23038;-84
2022/10/26 04:25:31;;;;;;;;;;;;;;;7.31;100.00;98256.90;105427;1324;22234;-88
2022/10/26 04:28:01;;;;;;;;;;;;;;;7.28;100.00;98255.77;105829;1305;22359;-86
2022/10/26 04:30:29;;;;;;;;;;;;;;;7.20;100.00;98250.79;105813;1316;22327;-85
2022/10/26 04:32:57;;;;;;;;;;;;;;;7.16;100.00;98256.58;105816;1315;22281;-86
2022/10/26 04:35:25;;;;;;;;;;;;;;;7.12;100.00;98251.92;105385;1327;23028;-85
2022/10/26 04:37:56;;;;;;;;;;;;;;;7.07;100.00;98253.95;105833;1316;22276;-87
2022/10/26 04:40:24;;;;;;;;;;;;;;;7.04;100.00;98251.00;105399;1323;23160;-85
2022/10/26 04:42:52;;;;;;;;;;;;;;;7.03;100.00;98253.09;105640;1316;22263;-87
2022/10/26 04:45:20;;;;;;;;;;;;;;;7.01;100.00;98252.92;105393;1323;22417;-86
2022/10/26 04:47:57;;;;;;;;;;;;;;;6.98;100.00;98256.18;105426;1328;22292;-86
2022/10/26 04:50:26;;;;;;;;;;;;;;;6.95;100.00;98255.33;105812;1315;22305;-86
2022/10/26 04:52:55;;;;;;;;;;;;;;;6.93;100.00;98251.89;105823;1316;22364;-86
2022/10/26 04:55:23;;;;;;;;;;;;;;;6.91;100.00;98255.69;105425;1323;22429;-86
2022/10/26 04:57:51;;;;;;;;;;;;;;;6.87;100.00;98259.11;105625;1316;22291;-86
2022/10/26 05:00:23;;;;;;;;;;;;;;;6.81;100.00;98262.59;105786;1316;22359;-86
2022/10/26 05:02:51;;;;;;;;;;;;;;;6.82;100.00;98261.05;105216;1324;22284;-87
2022/10/26 05:05:19;;;;;;;;;;;;;;;6.82;100.00;98260.77;105645;1316;22348;-86
2022/10/26 05:07:52;;;;;;;;;;;;;;;6.77;100.00;98261.08;105428;1325;22381;-87
2022/10/26 05:10:20;;;;;;;;;;;;;;;6.70;100.00;98267.06;105648;1317;22399;-88
2022/10/26 05:12:58;;;;;;;;;;;;;;;6.66;100.00;98262.39;105810;1313;22375;-84
2022/10/26 05:15:26;;;;;;;;;;;;;;;6.71;100.00;98261.39;105799;1316;22299;-87
2022/10/26 05:17:57;;;;;;;;;;;;;;;6.74;100.00;98265.47;105813;1299;22365;-85
2022/10/26 05:20:29;;;;;;;;;;;;;;;6.78;100.00;98270.23;105404;1323;22999;-87
2022/10/26 05:22:58;;;;;;;;;;;;;;;6.86;100.00;98267.79;105814;1316;22359;-84
2022/10/26 05:25:26;;;;;;;;;;;;;;;6.97;100.00;98267.21;105027;1324;22238;-84
2022/10/26 05:27:58;;;;;;;;;;;;;;;7.13;100.00;98269.81;105414;1324;22341;-84
2022/10/26 05:30:26;;;;;;;;;;;;;;;7.19;100.00;98275.29;105243;1327;22278;-82
2022/10/26 05:32:58;;;;;;;;;;;;;;;7.18;100.00;98279.68;105822;1316;22274;-82
2022/10/26 05:35:26;;;;;;;;;;;;;;;7.24;100.00;98283.38;105224;1325;23166;-83
2022/10/26 05:37:54;;;;;;;;;;;;;;;7.33;100.00;98279.53;105619;1317;22270;-84
2022/10/26 05:40:22;;;;;;;;;;;;;;;7.46;100.00;98271.36;105819;1315;22281;-85
2022/10/26 05:42:50;;;;;;;;;;;;;;;7.60;100.00;98273.61;105798;1315;22337;-85
2022/10/26 05:45:19;;;;;;;;;;;;;;;7.66;100.00;98274.52;105223;1324;22882;-82
2022/10/26 05:47:46;;;;;;;;;;;;;;;7.65;100.00;98276.36;105238;1324;22247;-84
2022/10/26 05:50:15;;;;;;;;;;;;;;;7.66;100.00;98276.02;105803;1305;22381;-82
2022/10/26 05:52:46;;;;;;;;;;;;;;;7.76;100.00;98280.34;105409;1323;22258;-88
2022/10/26 05:55:16;;;;;;;;;;;;;;;7.89;100.00;98285.53;105828;1315;23026;-83
2022/10/26 05:57:44;;;;;;;;;;;;;;;7.97;100.00;98280.59;105630;1316;22268;-85
2022/10/26 06:00:19;;;;;;;;;;;;;;;8.01;100.00;98280.73;105412;1323;22251;-85
2022/10/26 06:03:06;;;;;;;;;;;;;;;8.03;100.00;98284.00;105448;1324;22271;-83
2022/10/26 06:05:49;;;;;;;;;;;;;;;8.12;100.00;98284.35;105424;1324;22336;-83
2022/10/26 06:08:17;;;;;;;;;;;;;;;8.19;100.00;98290.63;105625;1309;22302;-84
2022/10/26 06:10:46;;;;;;;;;;;;;;;8.34;100.00;98291.27;105398;1323;22336;-83
2022/10/26 06:13:14;;;;;;;;;;;;;;;8.47;100.00;98291.89;105814;1316;23149;-82
2022/10/26 06:15:53;;;;;;;;;;;;;;;8.50;100.00;98293.21;105419;1314;22217;-83
2022/10/26 06:18:34;;;;;;;;;;;;;;;8.50;100.00;98298.87;105624;1316;22265;-86
2022/10/26 06:21:10;;;;;;;;;;;;;;;8.56;100.00;98301.84;105400;1323;22367;-83
2022/10/26 06:23:44;;;;;;;;;;;;;;;8.61;100.00;98298.11;105843;1316;22292;-83
2022/10/26 06:26:15;;;;;;;;;;;;;;;8.70;100.00;98298.13;105827;1305;22993;-82
2022/10/26 06:29:08;;;;;;;;;;;;;;;8.81;100.00;98300.76;105838;1305;23141;-82
2022/10/26 06:31:36;;;;;;;;;;;;;;;8.92;100.00;98305.58;105479;1311;22964;-85
2022/10/26 06:34:04;;;;;;;;;;;;;;;9.01;100.00;98309.52;105837;1316;22287;-86
2022/10/26 06:36:32;;;;;;;;;;;;;;;9.08;100.00;98308.40;105400;1324;22347;-84
2022/10/26 06:39:02;;;;;;;;;;;;;;;9.08;100.00;98311.17;105829;1305;23002;-82
2022/10/26 06:41:31;;;;;;;;;;;;;;;9.19;100.00;98310.95;105254;1318;22288;-85
2022/10/26 06:43:59;;;;;;;;;;;;;;;9.32;100.00;98312.64;105617;1316;22350;-84
2022/10/26 06:46:30;;;;;;;;;;;;;;;9.45;100.00;98316.41;105257;1324;22275;-85
2022/10/26 06:49:06;;;;;;;;;;;;;;;9.61;100.00;98322.48;105853;1315;22329;-88
2022/10/26 06:51:38;;;;;;;;;;;;;;;9.72;100.00;98321.80;105227;1324;22327;-84
2022/10/26 06:54:13;;;;;;;;;;;;;;;9.85;100.00;98324.80;105812;1316;22281;-85
2022/10/26 06:56:41;;;;;;;;;;;;;;;9.97;100.00;98322.96;105811;1315;23056;-84
2022/10/26 06:59:14;;;;;;;;;;;;;;;10.08;100.00;98325.33;105381;1324;22360;-82
2022/10/26 07:01:41;;;;;;;;;;;;;;;10.19;100.00;98328.06;105434;1323;23014;-82
2022/10/26 07:04:09;;;;;;;;;;;;;;;10.31;100.00;98328.63;105413;1323;22290;-82
2022/10/26 07:06:37;;;;;;;;;;;;;;;10.43;100.00;98326.05;105408;1324;22331;-83
2022/10/26 07:09:06;;;;;;;;;;;;;;;10.53;100.00;98326.17;105041;1323;22259;-85
2022/10/26 07:11:34;;;;;;;;;;;;;;;10.61;100.00;98329.23;105647;1317;22492;-84
2022/10/26 07:14:01;;;;;;;;;;;;;;;10.70;100.00;98329.73;105633;1317;22316;-86
2022/10/26 07:16:29;;;;;;;;;;;;;;;10.77;100.00;98335.15;105235;1319;22250;-85
2022/10/26 07:18:57;;;;;;;;;;;;;;;10.82;100.00;98339.30;105839;1316;22276;-85
2022/10/26 07:21:24;;;;;;;;;;;;;;;10.89;100.00;98342.27;105811;1302;22286;-84
2022/10/26 07:23:55;;;;;;;;;;;;;;;10.99;100.00;98339.73;105823;1316;22288;-85
2022/10/26 07:26:24;;;;;;;;;;;;;;;11.07;100.00;98346.55;105818;1312;22997;-83
2022/10/26 07:28:52;;;;;;;;;;;;;;;11.13;100.00;98349.45;105390;1323;22380;-83
2022/10/26 07:31:20;;;;;;;;;;;;;;;11.15;100.00;98350.70;105221;1324;23165;-87
2022/10/26 07:33:48;;;;;;;;;;;;;;;11.17;100.00;98350.52;105630;1316;22292;-86
2022/10/26 07:36:15;;;;;;;;;;;;;;;11.14;100.00;98350.13;105807;1316;22328;-84
2022/10/26 07:38:43;;;;;;;;;;;;;;;11.21;100.00;98352.79;105415;1323;22371;-84
2022/10/26 07:41:11;;;;;;;;;;;;;;;11.28;100.00;98351.97;105406;1309;22827;-83
2022/10/26 07:43:39;;;;;;;;;;;;;;;11.36;100.00;98358.45;105406;1323;23045;-83
2022/10/26 07:46:06;;;;;;;;;;;;;;;11.41;100.00;98363.07;105812;1305;22332;-83
2022/10/26 07:48:34;;;;;;;;;;;;;;;11.45;100.00;98362.25;105192;1324;22367;-83
2022/10/26 07:51:02;;;;;;;;;;;;;;;11.51;100.00;98359.96;105637;1317;22304;-84
2022/10/26 07:53:30;;;;;;;;;;;;;;;11.56;100.00;98355.63;105832;1301;22312;-88
2022/10/26 07:55:58;;;;;;;;;;;;;;;11.57;100.00;98356.79;105217;1318;22408;-83
2022/10/26 07:58:26;;;;;;;;;;;;;;;11.60;100.00;98353.83;105305;1321;22244;-84
2022/10/26 08:00:54;;;;;;;;;;;;;;;11.66;100.00;98349.40;105432;1323;22348;-84
2022/10/26 08:03:22;;;;;;;;;;;;;;;11.72;100.00;98344.41;105498;1322;22251;-86
2022/10/26 08:05:52;;;;;;;;;;;;;;;11.78;100.00;98345.00;105855;1316;22340;-84
2022/10/26 08:08:20;;;;;;;;;;;;;;;11.84;100.00;98347.23;105390;1324;22355;-85
2022/10/26 08:10:48;;;;;;;;;;;;;;;11.93;100.00;98349.22;105824;1316;22298;-86
2022/10/26 08:13:16;;;;;;;;;;;;;;;12.00;100.00;98350.56;105784;1316;22358;-83
2022/10/26 08:15:44;;;;;;;;;;;;;;;12.07;100.00;98352.20;105818;1316;22276;-83
2022/10/26 08:18:12;;;;;;;;;;;;;;;12.18;100.00;98349.69;105803;1309;22342;-82
2022/10/26 08:20:40;;;;;;;;;;;;;;;12.28;100.00;98347.25;105829;1316;22296;-84
2022/10/26 08:23:07;;;;;;;;;;;;;;;12.37;100.00;98348.70;105885;1316;22497;-85
2022/10/26 08:25:35;;;;;;;;;;;;;;;12.46;100.00;98349.34;105422;1324;22960;-85
2022/10/26 08:28:03;;;;;;;;;;;;;;;12.55;100.00;98348.04;105789;1309;22994;-85
2022/10/26 08:30:31;;;;;;;;;;;;;;;12.64;100.00;98346.66;105819;1316;22443;-86
2022/10/26 08:32:59;;;;;;;;;;;;;;;12.71;100.00;98346.66;105439;1323;22277;-87
2022/10/26 08:35:27;;;;;;;;;;;;;;;12.76;100.00;98346.44;105109;1324;22259;-86
2022/10/26 08:37:55;;;;;;;;;;;;;;;12.86;100.00;98346.02;105665;1316;22475;-85
2022/10/26 08:40:28;;;;;;;;;;;;;;;12.97;100.00;98350.05;105893;1299;22748;-85
2022/10/26 08:43:03;;;;;;;;;;;;;;;13.05;100.00;98343.97;105689;1299;22403;-87
2022/10/26 08:45:32;;;;;;;;;;;;;;;13.13;100.00;98341.31;105416;1324;22888;-88
2022/10/26 08:48:06;;;;;;;;;;;;;;;13.22;100.00;98339.75;105430;1323;22378;-85
2022/10/26 08:50:41;;;;;;;;;;;;;;;13.30;100.00;98348.93;105405;1323;22228;-84
2022/10/26 08:53:12;;;;;;;;;;;;;;;13.39;100.00;98347.05;105303;1323;22862;-86
2022/10/26 08:55:46;;;;;;;;;;;;;;;13.45;100.00;98349.22;105290;1323;22396;-85
2022/10/26 08:58:15;;;;;;;;;;;;;;;13.51;100.00;98350.16;105830;1302;22287;-85
2022/10/26 09:00:45;;;;;;;;;;;;;;;13.57;100.00;98348.14;105816;1316;22324;-87
2022/10/26 09:03:14;;;;;;;;;;;;;;;13.65;100.00;98346.98;105826;1300;22914;-86
2022/10/26 09:05:52;;;;;;;;;;;;;;;13.76;100.00;98347.47;105425;1324;22297;-86
2022/10/26 09:08:30;;;;;;;;;;;;;;;13.84;100.00;98341.58;105814;1302;22305;-85
2022/10/26 09:11:07;;;;;;;;;;;;;;;13.94;100.00;98341.38;105618;1302;22310;-86
2022/10/26 09:13:49;;;;;;;;;;;;;;;14.04;100.00;98339.23;105405;1324;22372;-85
2022/10/26 09:16:23;;;;;;;;;;;;;;;14.09;99.62;98346.76;105793;1316;22280;-86
2022/10/26 09:19:00;;;;;;;;;;;;;;;14.08;99.39;98344.26;105793;1300;22307;-88
2022/10/26 09:21:35;;;;;;;;;;;;;;;14.18;100.00;98348.52;105224;1317;22268;-87
2022/10/26 09:24:18;;;;;;;;;;;;;;;14.29;99.68;98353.27;105425;1323;23022;-86
2022/10/26 09:26:49;;;;;;;;;;;;;;;14.34;96.91;98354.17;105426;1324;22274;-87
2022/10/26 09:29:18;;;;;;;;;;;;;;;14.39;98.05;98356.20;105632;1317;22290;-87
2022/10/26 09:31:49;;;;;;;;;;;;;;;14.46;95.87;98361.34;105813;1316;22308;-88
2022/10/26 09:34:23;;;;;;;;;;;;;;;14.44;95.71;98358.18;105622;1317;22289;-86
2022/10/26 09:36:53;;;;;;;;;;;;;;;14.50;96.38;98354.94;105657;1303;22288;-89
2022/10/26 09:39:34;;;;;;;;;;;;;;;14.61;96.48;98354.39;105230;1323;22393;-85
2022/10/26 09:42:15;;;;;;;;;;;;;;;14.73;95.02;98353.78;105844;1316;22279;-88
2022/10/26 09:44:49;;;;;;;;;;;;;;;14.82;95.20;98359.81;105830;1316;22283;-88
2022/10/26 09:47:32;;;;;;;;;;;;;;;14.89;94.66;98362.00;105411;1316;22249;-87
2022/10/26 09:50:05;;;;;;;;;;;;;;;14.98;94.53;98364.64;105396;1323;22900;-89
2022/10/26 09:52:33;;;;;;;;;;;;;;;15.06;93.61;98367.66;105631;1317;22322;-91
2022/10/26 09:55:01;;;;;;;;;;;;;;;15.09;92.46;98365.29;105439;1323;22278;-88
2022/10/26 09:57:29;;;;;;;;;;;;;;;15.13;93.61;98365.91;105828;1316;22396;-91
2022/10/26 09:59:57;;;;;;;;;;;;;;;15.27;94.31;98367.85;105462;1323;22262;-89
2022/10/26 10:02:44;;;;;;;;;;;;;;;15.45;93.00;98360.16;105615;1317;22272;-89
2022/10/26 10:05:22;;;;;;;;;;;;;;;15.60;92.15;98359.55;105835;1317;22277;-89
2022/10/26 10:08:19;;;;;;;;;;;;;;;15.68;90.21;98362.67;105276;1324;22385;-89
2022/10/26 10:10:54;;;;;;;;;;;;;;;15.70;89.69;98368.79;105843;1303;22338;-91
2022/10/26 10:13:22;;;;;;;;;;;;;;;15.72;91.27;98362.67;105414;1324;22354;-88
2022/10/26 10:15:52;;;;;;;;;;;;;;;15.76;90.90;98360.91;105432;1324;23218;-92
2022/10/26 10:18:21;;;;;;;;;;;;;;;15.83;91.76;98359.69;105265;1318;22324;-89
2022/10/26 10:20:57;;;;;;;;;;;;;;;15.84;89.00;98358.80;105629;1317;22273;-88
2022/10/26 10:23:29;;;;;;;;;;;;;;;15.82;90.16;98358.79;105874;1317;22317;-90
2022/10/26 10:25:58;;;;;;;;;;;;;;;15.91;91.09;98352.96;105643;1317;22290;-90
2022/10/26 10:28:26;;;;;;;;;;;;;;;15.96;87.20;98355.42;105653;1308;22415;-89
2022/10/26 10:30:58;;;;;;;;;;;;;;;15.98;87.06;98350.98;105856;1317;22444;-88
2022/10/26 10:33:33;;;;;;;;;;;;;;;16.07;87.73;98351.24;105885;1315;22281;-91
2022/10/26 10:36:02;;;;;;;;;;;;;;;16.19;87.97;98348.30;105449;1324;22330;-89
2022/10/26 10:38:35;;;;;;;;;;;;;;;16.31;84.82;98351.52;105833;1317;22296;-91
2022/10/26 10:41:03;;;;;;;;;;;;;;;16.29;83.25;98350.06;105237;1324;22878;-90
2022/10/26 10:43:31;;;;;;;;;;;;;;;16.41;86.44;98352.48;105421;1324;22339;-92
2022/10/26 10:45:59;;;;;;;;;;;;;;;16.57;85.93;98354.64;105835;1316;22277;-89
2022/10/26 10:48:27;;;;;;;;;;;;;;;16.62;85.63;98357.99;105835;1317;22326;-90
2022/10/26 10:50:57;;;;;;;;;;;;;;;16.58;82.43;98359.55;105824;1315;22286;-91
2022/10/26 10:53:36;;;;;;;;;;;;;;;16.58;84.04;98356.36;105860;1317;22357;-91
2022/10/26 10:56:03;;;;;;;;;;;;;;;16.61;83.97;98357.02;105649;1317;22407;-90
2022/10/26 10:58:37;;;;;;;;;;;;;;;16.69;82.27;98354.09;105805;1317;22282;-88
2022/10/26 11:01:08;;;;;;;;;;;;;;;16.75;79.63;98358.70;105822;1310;22996;-87
2022/10/26 11:03:44;;;;;;;;;;;;;;;16.83;80.75;98351.10;105428;1324;22242;-90
2022/10/26 11:06:15;;;;;;;;;;;;;;;16.93;78.28;98352.27;105311;1324;22285;-90
2022/10/26 11:08:46;;;;;;;;;;;;;;;16.98;78.83;98356.27;105457;1324;22343;-89
2022/10/26 11:11:17;;;;;;;;;;;;;;;16.92;77.39;98362.64;105433;1319;22246;-87
2022/10/26 11:13:45;;;;;;;;;;;;;;;16.86;76.23;98362.88;105794;1299;22393;-88
2022/10/26 11:16:19;;;;;;;;;;;;;;;16.84;75.87;98360.29;105824;1307;22359;-91
2022/10/26 11:18:47;;;;;;;;;;;;;;;16.89;75.35;98360.10;105394;1324;22230;-87
2022/10/26 11:21:28;;;;;;;;;;;;;;;16.98;76.47;98357.23;105419;1324;22270;-87
2022/10/26 11:24:15;;;;;;;;;;;;;;;17.13;75.53;98357.88;105304;1324;22253;-89
2022/10/26 11:26:56;;;;;;;;;;;;;;;17.18;71.46;98361.98;105656;1317;22269;-88
2022/10/26 11:29:39;;;;;;;;;;;;;;;17.26;71.37;98361.70;105675;1317;22306;-86
2022/10/26 11:32:14;;;;;;;;;;;;;;;17.33;72.00;98362.58;105789;1317;22448;-85
2022/10/26 11:34:57;;;;;;;;;;;;;;;17.39;69.59;98364.23;105799;1310;23026;-85
2022/10/26 11:37:25;;;;;;;;;;;;;;;17.31;66.90;98360.31;105829;1317;22350;-87
2022/10/26 11:40:13;;;;;;;;;;;;;;;17.30;69.25;98359.69;105314;1324;22854;-87
2022/10/26 11:42:43;;;;;;;;;;;;;;;17.50;68.02;98365.30;104939;1323;22409;-86
2022/10/26 11:45:25;;;;;;;;;;;;;;;17.54;66.84;98362.82;105411;1323;22352;-86
2022/10/26 11:48:03;;;;;;;;;;;;;;;17.56;66.08;98364.23;105802;1315;22302;-86
2022/10/26 11:50:36;;;;;;;;;;;;;;;17.65;65.44;98361.05;105780;1317;22326;-86
2022/10/26 11:53:15;;;;;;;;;;;;;;;17.64;64.22;98361.40;105637;1302;23017;-86
2022/10/26 11:55:51;;;;;;;;;;;;;;;17.63;66.22;98358.17;105447;1323;22392;-87
2022/10/26 11:58:23;;;;;;;;;;;;;;;17.77;65.30;98357.06;105773;1292;22276;-85
2022/10/26 12:00:54;;;;;;;;;;;;;;;17.85;63.64;98358.60;105788;1299;23020;-88
2022/10/26 12:03:27;;;;;;;;;;;;;;;17.87;64.10;98357.34;105416;1316;22232;-89
2022/10/26 12:05:56;;;;;;;;;;;;;;;17.95;64.28;98357.88;105726;1308;22311;-88
2022/10/26 12:08:26;;;;;;;;;;;;;;;18.07;64.56;98361.65;105242;1323;22883;-86
2022/10/26 12:11:04;;;;;;;;;;;;;;;18.16;62.86;98368.95;105420;1324;22260;-87
2022/10/26 12:13:44;;;;;;;;;;;;;;;18.16;62.86;98368.09;105044;1324;22406;-87
2022/10/26 12:16:20;;;;;;;;;;;;;;;18.21;64.39;98364.52;105380;1318;22267;-90
2022/10/26 12:18:55;;;;;;;;;;;;;;;18.33;65.35;98364.38;105624;1302;22896;-89
2022/10/26 12:21:27;;;;;;;;;;;;;;;18.55;65.87;98361.67;105260;1315;22254;-87
2022/10/26 12:23:57;;;;;;;;;;;;;;;18.69;63.44;98363.70;105207;1324;22238;-88
2022/10/26 12:26:25;;;;;;;;;;;;;;;18.71;62.55;98366.98;105419;1311;22366;-87
2022/10/26 12:29:02;;;;;;;;;;;;;;;18.72;62.35;98364.20;105806;1300;22295;-88
2022/10/26 12:31:36;;;;;;;;;;;;;;;18.72;62.33;98360.21;105412;1324;22321;-88
2022/10/26 12:34:04;;;;;;;;;;;;;;;18.74;61.04;98360.05;105627;1308;22950;-86
2022/10/26 12:36:50;;;;;;;;;;;;;;;18.73;61.02;98358.36;105428;1323;22259;-88
2022/10/26 12:39:34;;;;;;;;;;;;;;;18.87;61.22;98359.14;105429;1323;22346;-86
2022/10/26 12:42:05;;;;;;;;;;;;;;;18.94;60.50;98362.88;105802;1317;22315;-88
2022/10/26 12:44:38;;;;;;;;;;;;;;;18.94;60.10;98364.83;105790;1309;22934;-87
2022/10/26 12:47:07;;;;;;;;;;;;;;;19.07;62.05;98355.63;105620;1317;22295;-87
2022/10/26 12:49:53;;;;;;;;;;;;;;;19.32;61.17;98357.56;105413;1324;22247;-90
2022/10/26 12:52:25;;;;;;;;;;;;;;;19.47;62.48;98347.91;105372;1321;22245;-90
2022/10/26 12:55:01;;;;;;;;;;;;;;;19.70;61.99;98351.80;105790;1315;22315;-90
2022/10/26 12:57:44;;;;;;;;;;;;;;;19.77;58.56;98351.39;105773;1317;22338;-88